Time;durP1;ratioP1;P1;durP2;ratioP2;P2;SDS_P1;SDS_P2;PMS_P1;PMS_P2;Temp;Humidity;BMP_temperature;BMP_pressure;BME280_temperature;BME280_humidity;BME280_pressure;Samples;Min_cycle;Max_cycle;Signal;HPM_P1;HPM_P2
2023/03/27 00:00:19;;;;;;;0.37;0.20;;;;;;;10.63;74.31;99492.03;5032421;28;20471;-74
2023/03/27 00:02:48;;;;;;;0.25;0.25;;;;;;;10.59;74.25;99496.34;5022999;28;20799;-73
2023/03/27 00:05:19;;;;;;;0.20;0.20;;;;;;;10.60;74.03;99503.41;5027403;28;20879;-73
2023/03/27 00:07:47;;;;;;;0.20;0.20;;;;;;;10.61;73.98;99502.31;5016814;28;20475;-74
2023/03/27 00:10:13;;;;;;;0.52;0.32;;;;;;;10.63;74.19;99512.91;5026183;28;20468;-74
2023/03/27 00:12:38;;;;;;;1.23;0.20;;;;;;;10.62;74.34;99514.78;5023482;28;20391;-74
2023/03/27 00:15:04;;;;;;;0.10;0.10;;;;;;;10.63;74.09;99519.13;5019111;28;20393;-74
2023/03/27 00:17:29;;;;;;;0.90;0.20;;;;;;;10.64;73.96;99520.75;5030846;28;20391;-73
2023/03/27 00:19:54;;;;;;;0.20;0.20;;;;;;;10.61;74.09;99525.88;5027111;28;20400;-73
2023/03/27 00:22:19;;;;;;;0.10;0.10;;;;;;;10.61;74.12;99531.28;5022112;28;20944;-74
2023/03/27 00:24:45;;;;;;;0.20;0.20;;;;;;;10.62;73.99;99546.47;5029528;28;20395;-73
2023/03/27 00:27:10;;;;;;;0.30;0.30;;;;;;;10.65;73.89;99545.94;5031872;28;20387;-73
2023/03/27 00:29:36;;;;;;;0.20;0.20;;;;;;;10.66;73.65;99547.59;5017293;28;20394;-73
2023/03/27 00:32:02;;;;;;;1.50;0.20;;;;;;;10.65;73.69;99554.88;5023438;28;20381;-74
2023/03/27 00:34:29;;;;;;;0.30;0.30;;;;;;;10.67;73.97;99560.84;5024705;28;20424;-73
2023/03/27 00:36:54;;;;;;;0.25;0.20;;;;;;;10.66;74.06;99561.13;5032445;28;20383;-74
2023/03/27 00:39:20;;;;;;;0.30;0.30;;;;;;;10.66;74.10;99567.38;5016185;28;20739;-74
2023/03/27 00:41:46;;;;;;;1.90;0.30;;;;;;;10.66;74.13;99572.78;5024880;28;20470;-73
2023/03/27 00:44:33;;;;;;;0.45;0.30;;;;;;;10.65;74.12;99575.75;5023700;28;20782;-74
2023/03/27 00:47:01;;;;;;;1.75;0.45;;;;;;;10.63;74.22;99581.44;5032237;28;20399;-73
2023/03/27 00:49:30;;;;;;;0.70;0.30;;;;;;;10.57;74.06;99584.41;5025654;28;20381;-73
2023/03/27 00:51:57;;;;;;;0.20;0.20;;;;;;;10.53;73.93;99594.13;5022410;28;20399;-74
2023/03/27 00:54:28;;;;;;;0.35;0.35;;;;;;;10.50;73.75;99600.91;5032070;28;20424;-74
2023/03/27 00:56:57;;;;;;;0.60;0.60;;;;;;;10.44;73.43;99604.66;5031844;28;20434;-74
2023/03/27 00:59:27;;;;;;;1.25;0.60;;;;;;;10.43;72.89;99600.34;5025576;28;20431;-74
2023/03/27 01:01:52;;;;;;;1.00;0.43;;;;;;;10.31;72.95;99603.25;5023499;28;20495;-74
2023/03/27 01:04:20;;;;;;;1.00;0.60;;;;;;;10.31;72.89;99613.25;5017369;28;20488;-74
2023/03/27 01:06:49;;;;;;;0.70;0.70;;;;;;;10.33;72.54;99616.53;5031411;28;20391;-73
2023/03/27 01:09:14;;;;;;;1.20;0.70;;;;;;;10.36;72.61;99622.25;5025126;28;20403;-74
2023/03/27 01:11:57;;;;;;;1.50;0.70;;;;;;;10.31;72.52;99621.38;5021822;28;20396;-74
2023/03/27 01:15:04;;;;;;;0.70;0.67;;;;;;;10.27;72.83;99628.44;5014592;28;20411;-74
2023/03/27 01:17:38;;;;;;;2.10;0.83;;;;;;;10.28;72.66;99638.97;4961010;28;20417;-74
2023/03/27 01:20:32;;;;;;;2.73;1.03;;;;;;;10.25;72.06;99641.41;4950013;28;20760;-74
2023/03/27 01:23:33;;;;;;;0.70;0.70;;;;;;;10.19;72.54;99651.38;5014205;28;20499;-74
2023/03/27 01:26:06;;;;;;;2.30;0.93;;;;;;;10.19;72.55;99664.94;5016621;28;20425;-74
2023/03/27 01:28:53;;;;;;;1.33;1.00;;;;;;;10.15;72.05;99663.00;5015868;28;20933;-74
2023/03/27 01:31:59;;;;;;;5.93;1.40;;;;;;;10.08;71.67;99674.03;5031511;28;20407;-74
2023/03/27 01:34:44;;;;;;;3.60;1.70;;;;;;;9.95;71.94;99682.59;5015510;28;20395;-74
2023/03/27 01:37:34;;;;;;;5.40;2.15;;;;;;;9.90;71.18;99688.81;5021371;28;20446;-73
2023/03/27 01:40:14;;;;;;;3.70;1.60;;;;;;;9.89;70.35;99697.16;5025792;28;20395;-74
2023/03/27 01:43:00;;;;;;;4.22;1.70;;;;;;;9.77;69.80;99700.06;5033533;28;20801;-74
2023/03/27 01:45:48;;;;;;;3.33;2.08;;;;;;;9.74;69.96;99710.56;5031517;28;20878;-73
2023/03/27 01:48:31;;;;;;;4.28;1.90;;;;;;;9.74;70.05;99714.09;5009235;28;20766;-74
2023/03/27 01:51:04;;;;;;;4.68;1.85;;;;;;;9.68;69.19;99719.72;5031396;28;20730;-74
2023/03/27 01:53:48;;;;;;;9.02;2.03;;;;;;;9.73;69.13;99727.88;5016689;28;20389;-74
2023/03/27 01:56:31;;;;;;;4.13;1.90;;;;;;;9.75;68.67;99728.41;5024600;28;20391;-73
2023/03/27 01:59:10;;;;;;;5.50;1.90;;;;;;;9.78;68.28;99739.56;5028419;28;20399;-74
2023/03/27 02:01:39;;;;;;;6.38;2.30;;;;;;;9.70;67.11;99745.44;5031195;28;20407;-74
2023/03/27 02:04:13;;;;;;;6.43;1.80;;;;;;;9.61;66.75;99755.09;5026370;28;20446;-74
2023/03/27 02:06:46;;;;;;;10.30;2.15;;;;;;;9.57;66.69;99753.97;5021354;28;20387;-74
2023/03/27 02:09:19;;;;;;;8.23;2.43;;;;;;;9.53;67.27;99768.25;5016752;28;20451;-73
2023/03/27 02:11:58;;;;;;;8.32;2.70;;;;;;;9.58;66.96;99769.13;5025337;28;20746;-74
2023/03/27 02:14:29;;;;;;;10.52;2.30;;;;;;;9.60;66.48;99768.88;5020969;28;20490;-74
2023/03/27 02:17:00;;;;;;;10.38;2.28;;;;;;;9.53;66.97;99787.19;5031246;28;20390;-73
2023/03/27 02:19:33;;;;;;;5.95;2.10;;;;;;;9.49;66.32;99786.06;5015154;28;20931;-74
2023/03/27 02:21:59;;;;;;;9.35;2.38;;;;;;;9.42;65.89;99788.97;5024481;28;20850;-74
2023/03/27 02:24:24;;;;;;;7.30;2.50;;;;;;;9.45;65.75;99796.56;5024578;28;20485;-73
2023/03/27 02:26:58;;;;;;;7.70;2.27;;;;;;;9.46;65.43;99798.19;5020499;28;20435;-73
2023/03/27 02:29:36;;;;;;;8.10;2.55;;;;;;;9.43;65.94;99800.59;5029857;28;20791;-74
2023/03/27 02:32:20;;;;;;;11.10;2.08;;;;;;;9.44;65.83;99810.34;5023337;28;20426;-74
2023/03/27 02:35:19;;;;;;;9.63;2.13;;;;;;;9.51;65.89;99819.09;5034568;28;20528;-74
2023/03/27 02:38:07;;;;;;;9.53;2.00;;;;;;;9.57;65.73;99829.72;5021656;28;20423;-74
2023/03/27 02:40:44;;;;;;;8.20;2.35;;;;;;;9.53;65.50;99830.47;5034492;28;20761;-73
2023/03/27 02:43:25;;;;;;;11.47;2.70;;;;;;;9.52;65.04;99831.53;5018305;28;20446;-74
2023/03/27 02:46:16;;;;;;;8.63;2.00;;;;;;;9.46;64.49;99841.47;5025758;28;20472;-74
2023/03/27 02:48:48;;;;;;;9.73;2.08;;;;;;;9.45;64.52;99845.25;5031190;28;20396;-74
2023/03/27 02:51:23;;;;;;;12.30;2.03;;;;;;;9.51;63.95;99854.25;5029676;28;20935;-73
2023/03/27 02:53:57;;;;;;;9.48;2.33;;;;;;;9.35;63.90;99855.97;5024246;28;20909;-74
2023/03/27 02:56:26;;;;;;;10.90;1.63;;;;;;;9.30;63.49;99867.53;5019528;28;20861;-73
2023/03/27 02:58:59;;;;;;;5.13;1.60;;;;;;;9.20;62.45;99875.50;5033145;28;20457;-74
2023/03/27 03:01:31;;;;;;;9.02;2.17;;;;;;;9.16;62.20;99874.34;5026519;28;20480;-73
2023/03/27 03:04:01;;;;;;;6.40;1.65;;;;;;;9.18;61.82;99882.22;5025551;28;20399;-74
2023/03/27 03:06:30;;;;;;;5.32;1.52;;;;;;;9.18;60.60;99887.63;5016686;28;20397;-73
2023/03/27 03:09:06;;;;;;;9.45;1.80;;;;;;;9.15;60.49;99905.19;5033880;28;20889;-74
2023/03/27 03:11:34;;;;;;;5.20;1.70;;;;;;;9.20;60.83;99916.03;5024238;28;20981;-74
2023/03/27 03:13:59;;;;;;;7.53;1.80;;;;;;;9.24;60.35;99919.06;5027965;28;20391;-73
2023/03/27 03:16:26;;;;;;;10.65;2.45;;;;;;;9.24;59.97;99924.47;5033801;28;20391;-74
2023/03/27 03:18:51;;;;;;;7.55;1.98;;;;;;;9.21;60.60;99931.22;5028416;28;20464;-73
2023/03/27 03:21:17;;;;;;;9.35;1.50;;;;;;;9.22;59.64;99942.84;5022221;28;20477;-74
2023/03/27 03:23:42;;;;;;;6.15;2.22;;;;;;;9.16;59.76;99946.50;5020888;28;20892;-74
2023/03/27 03:26:07;;;;;;;9.23;1.93;;;;;;;9.16;60.54;99955.44;5030513;28;20827;-74
2023/03/27 03:28:35;;;;;;;7.87;1.90;;;;;;;9.15;60.27;99953.84;5029348;28;20411;-74
2023/03/27 03:31:03;;;;;;;8.27;2.00;;;;;;;9.07;59.89;99959.66;5022154;28;20395;-74
2023/03/27 03:33:29;;;;;;;6.93;1.98;;;;;;;9.11;60.02;99977.00;5021079;28;20425;-74
2023/03/27 03:35:59;;;;;;;11.10;1.92;;;;;;;9.13;59.65;99976.75;5028763;28;20478;-74
2023/03/27 03:38:25;;;;;;;6.70;1.80;;;;;;;9.11;59.72;99987.00;5018509;28;20415;-74
2023/03/27 03:40:54;;;;;;;8.82;1.73;;;;;;;9.13;59.55;99995.66;5033350;28;20437;-74
2023/03/27 03:43:21;;;;;;;6.60;1.23;;;;;;;9.15;59.36;100005.19;5020810;28;20849;-74
2023/03/27 03:45:47;;;;;;;9.70;1.63;;;;;;;9.10;58.88;100015.91;5029510;28;20402;-73
2023/03/27 03:48:12;;;;;;;4.03;1.35;;;;;;;9.03;58.37;100017.97;5017737;28;20596;-74
2023/03/27 03:50:38;;;;;;;4.50;1.57;;;;;;;8.93;57.99;100028.59;5025231;28;20473;-74
2023/03/27 03:53:03;;;;;;;8.00;1.60;;;;;;;8.90;58.65;100031.78;5025152;28;20383;-74
2023/03/27 03:55:28;;;;;;;8.00;2.15;;;;;;;8.83;58.11;100034.66;5026572;28;20466;-73
2023/03/27 03:57:54;;;;;;;5.13;1.67;;;;;;;8.83;58.21;100044.63;5031738;28;20438;-74
2023/03/27 04:00:21;;;;;;;7.65;1.52;;;;;;;8.79;57.96;100055.09;5026289;28;20397;-74
2023/03/27 04:02:49;;;;;;;8.82;1.73;;;;;;;8.73;57.51;100063.34;5023830;28;20473;-74
2023/03/27 04:05:15;;;;;;;10.65;1.95;;;;;;;8.60;57.38;100075.28;5018101;28;20400;-74
2023/03/27 04:07:41;;;;;;;3.90;1.70;;;;;;;8.57;57.08;100088.44;5029148;28;20446;-74
2023/03/27 04:10:07;;;;;;;8.27;1.67;;;;;;;8.44;57.41;100089.56;5019296;28;20419;-74
2023/03/27 04:12:32;;;;;;;7.17;2.20;;;;;;;8.44;57.78;100107.63;5023184;28;20397;-74
2023/03/27 04:14:58;;;;;;;5.00;1.27;;;;;;;8.49;57.53;100105.03;5027003;28;20859;-73
2023/03/27 04:17:25;;;;;;;8.82;1.40;;;;;;;8.54;57.66;100114.06;5031139;28;20724;-74
2023/03/27 04:19:53;;;;;;;11.70;1.63;;;;;;;8.54;57.70;100119.47;5018405;28;20394;-74
2023/03/27 04:22:21;;;;;;;10.10;1.67;;;;;;;8.40;57.50;100131.59;5023074;28;20771;-74
2023/03/27 04:24:49;;;;;;;6.40;1.35;;;;;;;8.42;57.87;100123.25;5025205;28;20392;-74
2023/03/27 04:27:15;;;;;;;7.32;1.25;;;;;;;8.41;58.10;100133.25;5016347;28;20397;-74
2023/03/27 04:29:42;;;;;;;4.85;1.55;;;;;;;8.43;58.42;100146.50;5030836;28;20418;-74
2023/03/27 04:32:11;;;;;;;10.15;1.60;;;;;;;8.40;58.82;100155.88;5023788;28;20419;-73
2023/03/27 04:34:37;;;;;;;7.05;1.67;;;;;;;8.41;58.53;100159.41;5028931;28;20414;-74
2023/03/27 04:37:03;;;;;;;14.57;1.83;;;;;;;8.42;58.91;100167.28;5015393;28;20393;-74
2023/03/27 04:39:28;;;;;;;7.97;1.80;;;;;;;8.40;59.54;100171.28;5032192;28;20410;-74
2023/03/27 04:41:53;;;;;;;10.17;1.80;;;;;;;8.38;59.09;100186.88;5023519;28;20770;-74
2023/03/27 04:44:18;;;;;;;10.07;1.80;;;;;;;8.38;59.10;100195.81;5026210;28;20407;-73
2023/03/27 04:46:48;;;;;;;5.90;1.47;;;;;;;8.33;59.54;100198.41;5029251;28;20528;-73
2023/03/27 04:49:15;;;;;;;8.17;1.77;;;;;;;8.32;59.92;100197.59;5027267;28;20580;-73
2023/03/27 04:51:40;;;;;;;8.00;1.40;;;;;;;8.32;59.96;100202.16;5024589;28;20423;-74
2023/03/27 04:54:06;;;;;;;8.90;2.15;;;;;;;8.21;59.20;100211.88;5023448;28;20407;-73
2023/03/27 04:56:33;;;;;;;8.80;1.50;;;;;;;8.19;59.36;100221.28;5023642;28;20407;-74
2023/03/27 04:58:59;;;;;;;8.85;2.00;;;;;;;8.20;59.62;100225.63;5020489;28;20766;-73
2023/03/27 05:01:24;;;;;;;8.30;1.17;;;;;;;8.11;59.34;100229.72;5017139;28;20454;-74
2023/03/27 05:03:50;;;;;;;7.97;1.37;;;;;;;8.10;58.44;100249.69;5017751;28;20397;-74
2023/03/27 05:06:16;;;;;;;9.88;1.40;;;;;;;7.97;57.42;100244.50;5030443;28;20443;-74
2023/03/27 05:08:41;;;;;;;6.57;1.60;;;;;;;7.93;56.59;100256.81;5014832;28;20443;-73
2023/03/27 05:11:06;;;;;;;9.30;1.33;;;;;;;7.91;55.70;100269.69;5030810;28;20414;-73
2023/03/27 05:13:32;;;;;;;7.50;1.43;;;;;;;7.91;55.05;100270.53;5021484;28;20753;-73
2023/03/27 05:15:57;;;;;;;7.53;1.80;;;;;;;7.90;54.31;100284.25;5025874;28;20406;-74
2023/03/27 05:18:23;;;;;;;4.93;1.10;;;;;;;7.87;54.15;100279.31;5029800;28;20400;-73
2023/03/27 05:20:48;;;;;;;5.70;0.90;;;;;;;7.85;54.41;100287.63;5025723;28;20395;-74
2023/03/27 05:23:14;;;;;;;6.57;1.20;;;;;;;7.93;54.85;100294.59;5021606;28;20909;-73
2023/03/27 05:25:41;;;;;;;7.77;1.03;;;;;;;7.88;54.80;100300.66;5031671;28;20441;-73
2023/03/27 05:28:06;;;;;;;4.10;1.07;;;;;;;7.89;55.28;100302.31;5015352;28;20575;-73
2023/03/27 05:30:31;;;;;;;3.57;1.10;;;;;;;7.94;55.68;100307.81;5031761;28;20474;-74
2023/03/27 05:32:58;;;;;;;7.07;1.13;;;;;;;7.94;55.86;100313.22;5031163;28;20929;-73
2023/03/27 05:35:24;;;;;;;5.40;1.20;;;;;;;7.96;56.33;100321.94;5019431;28;20488;-74
2023/03/27 05:37:52;;;;;;;5.35;1.35;;;;;;;7.90;56.08;100328.25;5026931;28;20414;-74
2023/03/27 05:40:21;;;;;;;5.72;1.23;;;;;;;7.88;56.19;100343.84;5020522;28;20878;-74
2023/03/27 05:42:47;;;;;;;6.55;1.10;;;;;;;7.89;55.80;100350.88;5031549;28;20414;-73
2023/03/27 05:45:13;;;;;;;7.78;1.30;;;;;;;7.90;55.69;100357.94;5027817;28;20864;-74
2023/03/27 05:47:44;;;;;;;5.90;0.98;;;;;;;7.89;55.74;100356.28;5027599;28;20474;-74
2023/03/27 05:50:09;;;;;;;6.10;1.10;;;;;;;7.89;55.39;100369.78;5015806;28;20403;-74
2023/03/27 05:52:35;;;;;;;3.83;1.00;;;;;;;7.90;55.95;100374.13;5031362;28;20409;-72
2023/03/27 05:55:00;;;;;;;5.67;1.10;;;;;;;7.89;56.30;100385.97;5029785;28;20397;-73
2023/03/27 05:57:25;;;;;;;7.10;1.35;;;;;;;7.91;55.35;100383.84;5027166;28;20468;-73
2023/03/27 05:59:51;;;;;;;7.27;1.63;;;;;;;7.95;55.31;100400.41;5025450;28;20866;-73
2023/03/27 06:02:17;;;;;;;4.07;1.27;;;;;;;7.94;55.50;100409.53;5022290;28;20426;-73
2023/03/27 06:04:42;;;;;;;9.82;1.17;;;;;;;7.93;55.92;100416.84;5035062;28;20395;-73
2023/03/27 06:07:07;;;;;;;7.20;1.17;;;;;;;7.87;55.29;100419.63;5020735;28;20393;-73
2023/03/27 06:09:35;;;;;;;7.77;1.40;;;;;;;7.87;55.82;100431.22;5024144;28;20416;-72
2023/03/27 06:12:00;;;;;;;7.15;1.40;;;;;;;7.91;56.23;100435.09;5026940;28;20399;-72
2023/03/27 06:14:25;;;;;;;8.90;1.17;;;;;;;7.96;56.45;100443.34;5030373;28;20395;-73
2023/03/27 06:16:50;;;;;;;7.28;1.40;;;;;;;7.99;55.46;100445.59;5034935;28;20394;-73
2023/03/27 06:19:16;;;;;;;6.30;1.30;;;;;;;8.05;56.08;100450.09;5024482;28;20491;-73
2023/03/27 06:21:41;;;;;;;34.53;13.68;;;;;;;8.12;55.54;100455.38;5030211;28;20421;-72
2023/03/27 06:24:07;;;;;;;15.73;4.47;;;;;;;8.09;55.00;100456.69;5017530;28;20392;-73
2023/03/27 06:26:32;;;;;;;18.40;7.50;;;;;;;8.07;55.29;100464.16;5027303;28;20544;-73
2023/03/27 06:28:58;;;;;;;12.83;2.70;;;;;;;8.08;55.43;100471.22;5020875;28;20528;-73
2023/03/27 06:31:24;;;;;;;9.18;3.28;;;;;;;8.11;55.33;100481.56;5034580;28;20400;-72
2023/03/27 06:33:49;;;;;;;7.93;2.10;;;;;;;8.05;55.33;100485.16;5034585;28;20391;-72
2023/03/27 06:36:14;;;;;;;8.37;2.10;;;;;;;8.08;55.44;100486.56;5021870;28;20922;-72
2023/03/27 06:38:40;;;;;;;10.93;2.00;;;;;;;8.26;54.66;100490.09;5029343;28;20411;-72
2023/03/27 06:41:06;;;;;;;9.45;1.42;;;;;;;8.66;52.84;100501.13;5034489;28;20862;-72
2023/03/27 06:43:31;;;;;;;8.07;1.30;;;;;;;8.83;52.27;100504.81;5027560;28;20488;-73
2023/03/27 06:45:56;;;;;;;7.20;1.40;;;;;;;8.68;52.67;100503.63;5040508;28;20426;-73
2023/03/27 06:48:23;;;;;;;8.03;2.17;;;;;;;8.41;52.88;100508.59;5029038;28;20433;-73
2023/03/27 06:50:51;;;;;;;8.07;3.37;;;;;;;8.31;53.55;100500.22;5020230;28;20463;-73
2023/03/27 06:53:16;;;;;;;5.85;2.20;;;;;;;8.19;54.11;100502.84;5023505;28;20407;-73
2023/03/27 06:55:43;;;;;;;12.57;2.25;;;;;;;8.14;53.51;100518.88;5026838;28;20968;-73
2023/03/27 06:58:12;;;;;;;10.18;1.95;;;;;;;8.14;53.68;100518.06;5023634;28;20403;-73
2023/03/27 07:00:39;;;;;;;6.30;1.40;;;;;;;8.27;53.16;100520.56;5025034;28;20873;-73
2023/03/27 07:03:08;;;;;;;8.55;2.05;;;;;;;8.46;53.32;100534.91;5025100;28;20422;-73
2023/03/27 07:05:35;;;;;;;5.70;1.55;;;;;;;8.61;52.72;100536.13;5024857;28;20399;-73
2023/03/27 07:08:11;;;;;;;6.22;1.70;;;;;;;8.67;52.91;100543.31;5026071;28;20798;-73
2023/03/27 07:10:37;;;;;;;7.45;1.35;;;;;;;8.65;52.24;100542.72;5025900;28;20431;-73
2023/03/27 07:13:02;;;;;;;4.90;1.40;;;;;;;8.52;52.53;100545.63;5025119;28;21008;-73
2023/03/27 07:15:27;;;;;;;9.40;1.70;;;;;;;8.41;52.85;100559.06;5025052;28;20443;-73
2023/03/27 07:17:58;;;;;;;8.53;1.50;;;;;;;8.35;53.02;100558.09;5024445;28;20411;-73
2023/03/27 07:20:28;;;;;;;7.53;1.50;;;;;;;8.40;52.72;100560.94;5022360;28;20535;-73
2023/03/27 07:22:56;;;;;;;5.60;1.20;;;;;;;8.50;52.48;100573.91;5024346;28;20910;-73
2023/03/27 07:25:22;;;;;;;6.57;1.40;;;;;;;8.43;51.09;100568.59;5039249;28;20469;-73
2023/03/27 07:27:47;;;;;;;8.20;1.40;;;;;;;8.68;51.05;100569.28;5024556;28;21003;-73
2023/03/27 07:30:13;;;;;;;7.90;1.57;;;;;;;8.98;50.26;100577.38;5024489;28;20419;-73
2023/03/27 07:32:41;;;;;;;4.05;1.23;;;;;;;9.04;50.42;100579.13;5024218;28;20508;-73
2023/03/27 07:35:07;;;;;;;9.73;1.67;;;;;;;8.98;50.53;100596.28;5023698;28;20509;-73
2023/03/27 07:37:34;;;;;;;6.20;1.40;;;;;;;8.85;49.54;100600.00;5023542;28;20423;-73
2023/03/27 07:39:59;;;;;;;11.80;1.70;;;;;;;8.91;49.50;100608.25;5023208;28;20407;-73
2023/03/27 07:42:25;;;;;;;8.20;1.90;;;;;;;8.79;50.26;100609.00;5024251;28;20506;-73
2023/03/27 07:44:50;;;;;;;9.50;1.30;;;;;;;8.64;50.63;100613.19;5025447;28;20422;-73
2023/03/27 07:47:16;;;;;;;13.07;1.50;;;;;;;8.69;50.47;100613.34;5023277;28;20513;-73
2023/03/27 07:49:42;;;;;;;8.20;1.40;;;;;;;8.81;50.17;100612.34;5022889;28;20415;-73
2023/03/27 07:52:07;;;;;;;5.13;1.13;;;;;;;8.85;50.03;100621.63;5023859;28;20506;-73
2023/03/27 07:54:33;;;;;;;3.63;1.10;;;;;;;8.80;49.67;100620.66;5026698;28;20771;-73
2023/03/27 07:56:58;;;;;;;5.30;1.10;;;;;;;8.72;48.79;100621.00;5026810;28;20428;-73
2023/03/27 07:59:23;;;;;;;5.93;1.70;;;;;;;8.73;48.77;100628.84;5023742;28;20418;-73
2023/03/27 08:01:49;;;;;;;6.97;1.57;;;;;;;8.82;48.65;100637.47;5023156;28;20450;-73
2023/03/27 08:04:18;;;;;;;5.77;1.17;;;;;;;8.89;48.37;100640.09;5024991;28;20506;-73
2023/03/27 08:06:43;;;;;;;7.35;0.90;;;;;;;8.93;47.65;100641.25;5021671;28;21444;-73
2023/03/27 08:09:09;;;;;;;4.80;1.03;;;;;;;9.14;47.92;100638.88;5024655;28;20422;-73
2023/03/27 08:11:36;;;;;;;4.28;1.00;;;;;;;9.32;47.42;100636.09;5021289;28;20727;-73
2023/03/27 08:14:02;;;;;;;10.35;1.40;;;;;;;9.48;46.97;100645.44;5033089;28;20809;-73
2023/03/27 08:16:28;;;;;;;6.57;1.20;;;;;;;9.48;45.88;100645.44;5023072;28;20408;-73
2023/03/27 08:18:54;;;;;;;3.70;1.10;;;;;;;9.46;45.85;100647.53;5026225;28;20916;-73
2023/03/27 08:21:20;;;;;;;7.28;1.38;;;;;;;9.46;46.23;100647.53;5023166;28;20425;-73
2023/03/27 08:23:46;;;;;;;2.90;1.00;;;;;;;9.18;45.52;100656.28;5022594;28;20416;-73
2023/03/27 08:26:13;;;;;;;6.63;1.08;;;;;;;9.29;45.41;100660.88;5022113;28;20440;-73
2023/03/27 08:28:39;;;;;;;47.33;4.47;;;;;;;9.58;44.92;100658.38;5020737;28;20803;-73
2023/03/27 08:31:14;;;;;;;12.97;3.63;;;;;;;9.82;44.92;100660.84;5024293;28;20498;-73
2023/03/27 08:33:43;;;;;;;35.57;3.77;;;;;;;9.95;44.27;100661.66;5024077;28;20636;-73
2023/03/27 08:36:10;;;;;;;69.22;7.75;;;;;;;10.06;43.94;100675.22;5022105;28;20414;-73
2023/03/27 08:38:38;;;;;;;409.98;43.65;;;;;;;9.59;43.76;100677.06;5020747;28;20473;-73
2023/03/27 08:41:04;;;;;;;529.28;56.08;;;;;;;9.25;44.35;100684.03;5023356;28;20417;-73
2023/03/27 08:43:38;;;;;;;1292.30;911.95;;;;;;;9.39;42.87;100688.19;5022570;28;20793;-73
2023/03/27 08:46:20;;;;;;;1999.90;952.60;;;;;;;9.30;43.74;100684.19;5020688;28;20909;-73
2023/03/27 08:49:00;;;;;;;1999.90;999.90;;;;;;;9.44;43.79;100690.22;5022966;28;20878;-73
2023/03/27 08:51:32;;;;;;;1999.90;999.90;;;;;;;9.58;43.41;100693.56;5019139;28;20403;-73
2023/03/27 08:54:13;;;;;;;1999.90;999.90;;;;;;;9.53;43.53;100690.69;5024362;28;20411;-73
2023/03/27 08:56:38;;;;;;;1749.00;999.90;;;;;;;9.46;44.11;100701.63;5031044;28;20894;-73
2023/03/27 08:59:10;;;;;;;1999.90;999.90;;;;;;;9.37;43.43;100698.44;5023273;28;20406;-74
2023/03/27 09:02:07;;;;;;;1999.90;999.90;;;;;;;9.33;43.82;100704.53;5018651;28;20415;-73
2023/03/27 09:04:51;;;;;;;1999.90;983.33;;;;;;;9.21;43.87;100704.50;5022651;28;20410;-73
2023/03/27 09:07:43;;;;;;;1999.90;999.90;;;;;;;9.33;44.46;100699.94;5021001;28;20422;-73
2023/03/27 09:10:28;;;;;;;1999.90;999.90;;;;;;;9.86;44.13;100709.94;5021280;28;20433;-73
2023/03/27 09:13:06;;;;;;;1999.90;999.90;;;;;;;10.34;43.52;100701.63;5021600;28;21002;-73
2023/03/27 09:15:35;;;;;;;1999.90;999.90;;;;;;;10.73;42.95;100703.53;5022544;28;20411;-73
2023/03/27 09:18:22;;;;;;;1999.90;999.90;;;;;;;10.96;41.42;100697.22;5022199;28;20812;-72
2023/03/27 09:21:02;;;;;;;1999.90;999.90;;;;;;;11.21;40.02;100710.44;5020428;28;20498;-73
2023/03/27 09:23:37;;;;;;;1382.35;562.92;;;;;;;11.47;39.82;100707.13;5022416;28;20423;-72
2023/03/27 09:26:11;;;;;;;1999.90;558.20;;;;;;;11.77;38.00;100707.66;5019871;28;20408;-73
2023/03/27 09:28:50;;;;;;;1999.90;694.25;;;;;;;12.02;37.92;100703.72;5021830;28;20771;-73
2023/03/27 09:31:21;;;;;;;1999.90;769.92;;;;;;;12.27;38.03;100712.25;5021641;28;20451;-73
2023/03/27 09:33:47;;;;;;;1999.90;628.58;;;;;;;12.50;38.55;100706.59;5030186;28;20411;-73
2023/03/27 09:36:12;;;;;;;1999.90;512.60;;;;;;;12.67;38.09;100712.81;5024424;28;20927;-73
2023/03/27 09:38:43;;;;;;;528.80;167.53;;;;;;;12.90;37.22;100718.00;5025691;28;20423;-73
2023/03/27 09:41:15;;;;;;;276.43;93.47;;;;;;;13.21;36.19;100715.63;5026876;28;20468;-73
2023/03/27 09:43:47;;;;;;;59.13;21.00;;;;;;;13.56;36.88;100718.72;5025741;28;20827;-73
2023/03/27 09:46:18;;;;;;;6.83;1.50;;;;;;;14.11;36.14;100721.09;5025675;28;20407;-73
2023/03/27 09:48:52;;;;;;;5.47;0.90;;;;;;;14.27;35.42;100716.56;5041551;28;20463;-73
2023/03/27 09:51:36;;;;;;;3.35;0.90;;;;;;;14.87;34.85;100719.66;5022889;28;20403;-73
2023/03/27 09:54:03;;;;;;;4.50;0.63;;;;;;;14.74;34.77;100725.59;5026066;28;20503;-73
2023/03/27 09:56:29;;;;;;;3.75;1.00;;;;;;;14.02;34.83;100733.56;5025375;28;20421;-73
2023/03/27 09:58:56;;;;;;;6.22;1.08;;;;;;;13.73;34.72;100733.03;5025391;28;20465;-73
2023/03/27 10:01:36;;;;;;;6.50;1.37;;;;;;;16.11;32.18;100729.44;5026146;28;20403;-73
2023/03/27 10:04:12;;;;;;;6.73;1.80;;;;;;;17.88;30.27;100734.22;5027676;28;20419;-73
2023/03/27 10:06:43;;;;;;;4.70;1.10;;;;;;;19.03;28.80;100725.91;5026029;28;20494;-73
2023/03/27 10:09:22;;;;;;;3.95;0.90;;;;;;;19.69;27.72;100734.06;5026179;28;20410;-73
2023/03/27 10:11:49;;;;;;;4.03;1.23;;;;;;;18.78;27.82;100727.00;5026004;28;20411;-73
2023/03/27 10:14:17;;;;;;;7.40;1.27;;;;;;;19.77;27.25;100718.78;5024779;28;20410;-73
2023/03/27 10:16:44;;;;;;;3.05;0.88;;;;;;;21.16;25.21;100733.03;5025411;28;20748;-73
2023/03/27 10:19:27;;;;;;;3.50;0.93;;;;;;;18.77;27.36;100744.59;5024892;28;20442;-73
2023/03/27 10:21:55;;;;;;;3.63;0.70;;;;;;;16.78;28.82;100744.66;5024898;28;20538;-73
2023/03/27 10:24:32;;;;;;;2.00;0.70;;;;;;;15.76;30.46;100741.19;5026240;28;20496;-73
2023/03/27 10:26:59;;;;;;;4.90;1.20;;;;;;;15.12;31.76;100740.75;5024479;28;20411;-73
2023/03/27 10:29:29;;;;;;;2.92;1.10;;;;;;;14.50;32.90;100746.19;5025322;28;20507;-73
2023/03/27 10:31:57;;;;;;;5.55;1.02;;;;;;;13.95;33.77;100744.69;5045321;28;20448;-73
2023/03/27 10:34:51;;;;;;;4.13;0.50;;;;;;;17.29;29.91;100732.34;5024748;28;20407;-73
2023/03/27 10:37:39;;;;;;;3.85;1.05;;;;;;;20.17;26.13;100723.63;5018632;28;20770;-73
2023/03/27 10:40:06;;;;;;;3.35;0.98;;;;;;;21.20;23.83;100728.53;5023894;28;20404;-73
2023/03/27 10:42:32;;;;;;;2.33;0.88;;;;;;;22.32;23.47;100745.19;5031914;28;20835;-73
2023/03/27 10:44:58;;;;;;;1.67;0.90;;;;;;;22.48;22.89;100743.66;5025707;28;20497;-73
2023/03/27 10:47:29;;;;;;;4.95;0.73;;;;;;;23.39;22.51;100743.81;5032479;28;20438;-73
2023/03/27 10:50:02;;;;;;;2.47;1.05;;;;;;;24.20;21.53;100745.63;5025279;28;20398;-73
2023/03/27 10:52:33;;;;;;;3.88;0.93;;;;;;;24.49;20.37;100733.84;5024401;28;20490;-73
2023/03/27 10:55:50;;;;;;;3.50;0.73;;;;;;;23.69;21.10;100726.28;5025053;28;20399;-73
2023/03/27 10:58:48;;;;;;;3.13;0.90;;;;;;;21.02;23.25;100732.19;5006466;28;20415;-73
2023/03/27 11:01:19;;;;;;;2.93;1.00;;;;;;;19.10;25.22;100734.56;5024028;28;20446;-74
2023/03/27 11:03:55;;;;;;;1.63;0.65;;;;;;;18.90;25.49;100740.34;5034159;28;20462;-73
2023/03/27 11:06:26;;;;;;;1.23;0.50;;;;;;;19.48;24.31;100736.28;5025975;28;20435;-74
2023/03/27 11:09:04;;;;;;;4.63;0.73;;;;;;;18.87;25.20;100741.72;5028399;28;20439;-74
2023/03/27 11:11:35;;;;;;;2.53;0.60;;;;;;;17.94;26.47;100746.75;5024037;28;20415;-74
2023/03/27 11:14:05;;;;;;;2.28;0.80;;;;;;;16.84;27.60;100749.81;5018813;28;20476;-74
2023/03/27 11:16:48;;;;;;;3.83;0.67;;;;;;;16.19;29.22;100744.47;5023408;28;20597;-73
2023/03/27 11:19:57;;;;;;;4.53;0.85;;;;;;;15.54;29.27;100746.88;5023785;28;20403;-73
2023/03/27 11:22:43;;;;;;;2.85;0.70;;;;;;;15.01;30.25;100753.56;4982019;28;20428;-69
2023/03/27 11:25:31;;;;;;;1.52;0.40;;;;;;;14.57;31.72;100754.13;4978110;28;20418;-72
2023/03/27 11:28:12;;;;;;;4.00;1.00;;;;;;;14.39;32.68;100769.81;5010549;28;20415;-72
2023/03/27 11:30:47;;;;;;;3.10;0.80;;;;;;;14.23;33.17;100780.84;5020984;28;20533;-72
2023/03/27 11:33:34;;;;;;;2.10;0.85;;;;;;;13.95;33.43;100787.44;5019589;28;20527;-73
2023/03/27 11:36:25;;;;;;;2.67;0.82;;;;;;;14.04;34.31;100775.00;5022028;28;20489;-72
2023/03/27 11:39:25;;;;;;;3.00;1.00;;;;;;;15.77;32.93;100767.44;5021385;28;20923;-73
2023/03/27 11:41:56;;;;;;;3.88;0.82;;;;;;;18.57;29.98;100772.28;5008630;28;20410;-72
2023/03/27 11:44:24;;;;;;;2.67;1.00;;;;;;;16.99;29.98;100765.38;5022366;28;20403;-72
2023/03/27 11:47:09;;;;;;;4.40;0.85;;;;;;;15.49;30.60;100771.47;5019465;28;20411;-73